sensor_id;sensor_type;location;lat;lon;timestamp;temperature;humidity
60717;DHT22;46566;52.700;6.192;2022-12-29T00:01:40;10.20;99.90
60717;DHT22;46566;52.700;6.192;2022-12-29T00:04:06;10.20;99.90
60717;DHT22;46566;52.700;6.192;2022-12-29T00:06:32;10.20;99.90
60717;DHT22;46566;52.700;6.192;2022-12-29T00:08:58;10.20;99.90
60717;DHT22;46566;52.700;6.192;2022-12-29T00:11:25;10.20;99.90
60717;DHT22;46566;52.700;6.192;2022-12-29T00:13:52;10.20;99.90
60717;DHT22;46566;52.700;6.192;2022-12-29T00:16:38;10.20;99.90
60717;DHT22;46566;52.700;6.192;2022-12-29T00:19:05;10.20;99.90
60717;DHT22;46566;52.700;6.192;2022-12-29T00:21:31;10.30;99.90
60717;DHT22;46566;52.700;6.192;2022-12-29T00:24:18;10.30;99.90
60717;DHT22;46566;52.700;6.192;2022-12-29T00:29:49;10.30;99.90
60717;DHT22;46566;52.700;6.192;2022-12-29T00:32:34;10.30;99.90
60717;DHT22;46566;52.700;6.192;2022-12-29T00:35:25;10.40;99.90
60717;DHT22;46566;52.700;6.192;2022-12-29T00:37:52;10.40;99.90
60717;DHT22;46566;52.700;6.192;2022-12-29T00:40:37;10.40;99.90
60717;DHT22;46566;52.700;6.192;2022-12-29T00:43:21;10.40;99.90
60717;DHT22;46566;52.700;6.192;2022-12-29T00:46:05;10.40;99.90
60717;DHT22;46566;52.700;6.192;2022-12-29T00:48:31;10.40;99.90
60717;DHT22;46566;52.700;6.192;2022-12-29T00:51:15;10.40;99.90
60717;DHT22;46566;52.700;6.192;2022-12-29T00:53:41;10.40;99.90
60717;DHT22;46566;52.700;6.192;2022-12-29T00:56:06;10.40;99.90
60717;DHT22;46566;52.700;6.192;2022-12-29T00:58:32;10.40;99.90
60717;DHT22;46566;52.700;6.192;2022-12-29T01:01:03;10.50;99.90
60717;DHT22;46566;52.700;6.192;2022-12-29T01:03:29;10.50;99.90
60717;DHT22;46566;52.700;6.192;2022-12-29T01:05:54;10.50;99.90
60717;DHT22;46566;52.700;6.192;2022-12-29T01:08:20;10.50;99.90
60717;DHT22;46566;52.700;6.192;2022-12-29T01:10:45;10.50;99.90
60717;DHT22;46566;52.700;6.192;2022-12-29T01:13:11;10.60;99.90
60717;DHT22;46566;52.700;6.192;2022-12-29T01:15:37;10.60;99.90
60717;DHT22;46566;52.700;6.192;2022-12-29T01:18:02;10.60;99.90
60717;DHT22;46566;52.700;6.192;2022-12-29T01:20:29;10.60;99.90
60717;DHT22;46566;52.700;6.192;2022-12-29T01:22:55;10.70;99.90
60717;DHT22;46566;52.700;6.192;2022-12-29T01:25:21;10.70;99.90
60717;DHT22;46566;52.700;6.192;2022-12-29T01:27:47;10.70;99.90
60717;DHT22;46566;52.700;6.192;2022-12-29T01:30:38;10.70;99.90
60717;DHT22;46566;52.700;6.192;2022-12-29T01:33:25;10.80;99.90
60717;DHT22;46566;52.700;6.192;2022-12-29T01:35:51;10.70;99.90
60717;DHT22;46566;52.700;6.192;2022-12-29T01:38:16;10.70;99.90
60717;DHT22;46566;52.700;6.192;2022-12-29T01:40:46;10.70;99.90
60717;DHT22;46566;52.700;6.192;2022-12-29T01:43:13;10.70;99.90
60717;DHT22;46566;52.700;6.192;2022-12-29T01:45:45;10.80;99.90
60717;DHT22;46566;52.700;6.192;2022-12-29T01:48:13;10.70;99.90
60717;DHT22;46566;52.700;6.192;2022-12-29T01:50:42;10.70;99.90
60717;DHT22;46566;52.700;6.192;2022-12-29T01:53:22;10.80;99.90
60717;DHT22;46566;52.700;6.192;2022-12-29T01:55:54;10.80;99.90
60717;DHT22;46566;52.700;6.192;2022-12-29T01:58:23;10.80;99.90
60717;DHT22;46566;52.700;6.192;2022-12-29T02:00:49;10.80;99.90
60717;DHT22;46566;52.700;6.192;2022-12-29T02:03:16;10.90;99.90
60717;DHT22;46566;52.700;6.192;2022-12-29T02:05:57;10.90;99.90
60717;DHT22;46566;52.700;6.192;2022-12-29T02:08:26;10.90;99.90
60717;DHT22;46566;52.700;6.192;2022-12-29T02:10:55;10.90;99.90
60717;DHT22;46566;52.700;6.192;2022-12-29T02:13:24;10.90;99.90
60717;DHT22;46566;52.700;6.192;2022-12-29T02:19:00;10.80;99.90
60717;DHT22;46566;52.700;6.192;2022-12-29T02:24:33;10.70;99.90
60717;DHT22;46566;52.700;6.192;2022-12-29T02:30:12;10.60;99.90
60717;DHT22;46566;52.700;6.192;2022-12-29T02:32:56;10.60;99.90
60717;DHT22;46566;52.700;6.192;2022-12-29T02:38:13;10.60;99.90
60717;DHT22;46566;52.700;6.192;2022-12-29T02:40:47;10.50;99.90
60717;DHT22;46566;52.700;6.192;2022-12-29T02:43:18;10.50;99.90
60717;DHT22;46566;52.700;6.192;2022-12-29T02:45:59;10.50;99.90
60717;DHT22;46566;52.700;6.192;2022-12-29T02:48:40;10.50;99.90
60717;DHT22;46566;52.700;6.192;2022-12-29T02:51:12;10.50;99.90
60717;DHT22;46566;52.700;6.192;2022-12-29T02:53:39;10.50;99.90
60717;DHT22;46566;52.700;6.192;2022-12-29T02:56:24;10.50;99.90
60717;DHT22;46566;52.700;6.192;2022-12-29T02:58:51;10.50;99.90
60717;DHT22;46566;52.700;6.192;2022-12-29T03:08:14;10.50;99.90
60717;DHT22;46566;52.700;6.192;2022-12-29T03:16:31;10.40;99.90
60717;DHT22;46566;52.700;6.192;2022-12-29T03:19:04;10.40;99.90
60717;DHT22;46566;52.700;6.192;2022-12-29T03:21:43;10.50;99.90
60717;DHT22;46566;52.700;6.192;2022-12-29T03:24:38;10.50;99.90
60717;DHT22;46566;52.700;6.192;2022-12-29T03:27:06;10.50;99.90
60717;DHT22;46566;52.700;6.192;2022-12-29T03:29:45;10.50;99.90
60717;DHT22;46566;52.700;6.192;2022-12-29T03:32:14;10.50;99.90
60717;DHT22;46566;52.700;6.192;2022-12-29T03:34:41;10.60;99.90
60717;DHT22;46566;52.700;6.192;2022-12-29T03:37:14;10.60;99.90
60717;DHT22;46566;52.700;6.192;2022-12-29T03:39:41;10.60;99.90
60717;DHT22;46566;52.700;6.192;2022-12-29T03:42:13;10.60;99.90
60717;DHT22;46566;52.700;6.192;2022-12-29T03:44:42;10.50;99.90
60717;DHT22;46566;52.700;6.192;2022-12-29T03:47:13;10.50;99.90
60717;DHT22;46566;52.700;6.192;2022-12-29T03:49:40;10.40;99.90
60717;DHT22;46566;52.700;6.192;2022-12-29T03:52:07;10.30;99.90
60717;DHT22;46566;52.700;6.192;2022-12-29T03:54:37;10.30;99.90
60717;DHT22;46566;52.700;6.192;2022-12-29T03:59:41;10.10;99.90
60717;DHT22;46566;52.700;6.192;2022-12-29T04:02:06;10.10;99.90
60717;DHT22;46566;52.700;6.192;2022-12-29T04:04:32;10.10;99.90
60717;DHT22;46566;52.700;6.192;2022-12-29T04:06:58;10.00;99.90
60717;DHT22;46566;52.700;6.192;2022-12-29T04:09:23;10.00;99.90
60717;DHT22;46566;52.700;6.192;2022-12-29T04:11:50;10.00;99.90
60717;DHT22;46566;52.700;6.192;2022-12-29T04:14:16;9.90;99.90
60717;DHT22;46566;52.700;6.192;2022-12-29T04:16:41;9.90;99.90
60717;DHT22;46566;52.700;6.192;2022-12-29T04:19:07;9.90;99.90
60717;DHT22;46566;52.700;6.192;2022-12-29T04:21:34;9.90;99.90
60717;DHT22;46566;52.700;6.192;2022-12-29T04:24:00;9.90;99.90
60717;DHT22;46566;52.700;6.192;2022-12-29T04:26:26;9.90;99.90
60717;DHT22;46566;52.700;6.192;2022-12-29T04:28:58;9.90;99.90
60717;DHT22;46566;52.700;6.192;2022-12-29T04:31:33;10.00;99.90
60717;DHT22;46566;52.700;6.192;2022-12-29T04:33:58;10.00;99.90
60717;DHT22;46566;52.700;6.192;2022-12-29T04:36:25;10.00;99.90
60717;DHT22;46566;52.700;6.192;2022-12-29T04:38:52;10.00;99.90
60717;DHT22;46566;52.700;6.192;2022-12-29T04:41:18;10.10;99.90
60717;DHT22;46566;52.700;6.192;2022-12-29T04:43:44;10.10;99.90
60717;DHT22;46566;52.700;6.192;2022-12-29T04:46:09;10.00;99.90
60717;DHT22;46566;52.700;6.192;2022-12-29T04:48:46;10.00;99.90
60717;DHT22;46566;52.700;6.192;2022-12-29T04:51:30;10.00;99.90
60717;DHT22;46566;52.700;6.192;2022-12-29T04:53:56;10.00;99.90
60717;DHT22;46566;52.700;6.192;2022-12-29T04:56:22;10.00;99.90
60717;DHT22;46566;52.700;6.192;2022-12-29T04:58:48;10.00;99.90
60717;DHT22;46566;52.700;6.192;2022-12-29T05:01:14;10.00;99.90
60717;DHT22;46566;52.700;6.192;2022-12-29T05:03:40;10.00;99.90
60717;DHT22;46566;52.700;6.192;2022-12-29T05:06:06;10.00;99.90
60717;DHT22;46566;52.700;6.192;2022-12-29T05:08:31;10.00;99.90
60717;DHT22;46566;52.700;6.192;2022-12-29T05:10:59;10.00;99.90
60717;DHT22;46566;52.700;6.192;2022-12-29T05:13:25;10.00;99.90
60717;DHT22;46566;52.700;6.192;2022-12-29T05:15:52;10.00;99.90
60717;DHT22;46566;52.700;6.192;2022-12-29T05:18:19;10.00;99.90
60717;DHT22;46566;52.700;6.192;2022-12-29T05:20:46;9.90;99.90
60717;DHT22;46566;52.700;6.192;2022-12-29T05:23:12;9.90;99.90
60717;DHT22;46566;52.700;6.192;2022-12-29T05:25:38;9.90;99.90
60717;DHT22;46566;52.700;6.192;2022-12-29T05:28:13;9.90;99.90
60717;DHT22;46566;52.700;6.192;2022-12-29T05:30:43;9.90;99.90
60717;DHT22;46566;52.700;6.192;2022-12-29T05:33:09;9.90;99.90
60717;DHT22;46566;52.700;6.192;2022-12-29T05:35:37;9.90;99.90
60717;DHT22;46566;52.700;6.192;2022-12-29T05:38:03;9.90;99.90
60717;DHT22;46566;52.700;6.192;2022-12-29T05:40:29;9.90;99.90
60717;DHT22;46566;52.700;6.192;2022-12-29T05:42:59;9.90;99.90
60717;DHT22;46566;52.700;6.192;2022-12-29T05:45:36;9.90;99.90
60717;DHT22;46566;52.700;6.192;2022-12-29T05:48:24;9.90;99.90
60717;DHT22;46566;52.700;6.192;2022-12-29T05:51:10;9.90;99.90
60717;DHT22;46566;52.700;6.192;2022-12-29T05:53:44;9.80;99.90
60717;DHT22;46566;52.700;6.192;2022-12-29T05:56:10;9.80;99.90
60717;DHT22;46566;52.700;6.192;2022-12-29T05:58:36;9.80;99.90
60717;DHT22;46566;52.700;6.192;2022-12-29T06:01:02;9.70;99.90
60717;DHT22;46566;52.700;6.192;2022-12-29T06:03:28;9.70;99.90
60717;DHT22;46566;52.700;6.192;2022-12-29T06:05:53;9.70;99.90
60717;DHT22;46566;52.700;6.192;2022-12-29T06:08:19;9.70;99.90
60717;DHT22;46566;52.700;6.192;2022-12-29T06:10:46;9.70;99.90
60717;DHT22;46566;52.700;6.192;2022-12-29T06:13:12;9.70;99.90
60717;DHT22;46566;52.700;6.192;2022-12-29T06:15:41;9.70;99.90
60717;DHT22;46566;52.700;6.192;2022-12-29T06:18:07;9.70;99.90
60717;DHT22;46566;52.700;6.192;2022-12-29T06:20:33;9.70;99.90
60717;DHT22;46566;52.700;6.192;2022-12-29T06:23:01;9.70;99.90
60717;DHT22;46566;52.700;6.192;2022-12-29T06:25:28;9.70;99.90
60717;DHT22;46566;52.700;6.192;2022-12-29T06:27:56;9.70;99.90
60717;DHT22;46566;52.700;6.192;2022-12-29T06:30:21;9.60;99.90
60717;DHT22;46566;52.700;6.192;2022-12-29T06:32:47;9.70;99.90
60717;DHT22;46566;52.700;6.192;2022-12-29T06:35:13;9.70;99.90
60717;DHT22;46566;52.700;6.192;2022-12-29T06:37:44;9.70;99.90
60717;DHT22;46566;52.700;6.192;2022-12-29T06:40:10;9.70;99.90
60717;DHT22;46566;52.700;6.192;2022-12-29T06:43:07;9.70;99.90
60717;DHT22;46566;52.700;6.192;2022-12-29T06:45:46;9.60;99.90
60717;DHT22;46566;52.700;6.192;2022-12-29T06:48:12;9.70;99.90
60717;DHT22;46566;52.700;6.192;2022-12-29T06:50:38;9.70;99.90
60717;DHT22;46566;52.700;6.192;2022-12-29T06:53:03;9.70;99.90
60717;DHT22;46566;52.700;6.192;2022-12-29T06:55:29;9.70;99.90
60717;DHT22;46566;52.700;6.192;2022-12-29T06:57:56;9.60;99.90
60717;DHT22;46566;52.700;6.192;2022-12-29T07:00:22;9.60;99.90
60717;DHT22;46566;52.700;6.192;2022-12-29T07:02:48;9.60;99.90
60717;DHT22;46566;52.700;6.192;2022-12-29T07:05:14;9.60;99.90
60717;DHT22;46566;52.700;6.192;2022-12-29T07:07:39;9.60;99.90
60717;DHT22;46566;52.700;6.192;2022-12-29T07:10:05;9.60;99.90
60717;DHT22;46566;52.700;6.192;2022-12-29T07:12:31;9.50;99.90
60717;DHT22;46566;52.700;6.192;2022-12-29T07:14:57;9.50;99.90
60717;DHT22;46566;52.700;6.192;2022-12-29T07:17:22;9.50;99.90
60717;DHT22;46566;52.700;6.192;2022-12-29T07:19:48;9.50;99.90
60717;DHT22;46566;52.700;6.192;2022-12-29T07:22:13;9.50;99.90
60717;DHT22;46566;52.700;6.192;2022-12-29T07:24:39;9.50;99.90
60717;DHT22;46566;52.700;6.192;2022-12-29T07:27:05;9.50;99.90
60717;DHT22;46566;52.700;6.192;2022-12-29T07:29:31;9.50;99.90
60717;DHT22;46566;52.700;6.192;2022-12-29T07:31:56;9.60;99.90
60717;DHT22;46566;52.700;6.192;2022-12-29T07:34:22;9.60;99.90
60717;DHT22;46566;52.700;6.192;2022-12-29T07:36:47;9.60;99.90
60717;DHT22;46566;52.700;6.192;2022-12-29T07:39:13;9.60;99.90
60717;DHT22;46566;52.700;6.192;2022-12-29T07:41:39;9.60;99.90
60717;DHT22;46566;52.700;6.192;2022-12-29T07:44:05;9.60;99.90
60717;DHT22;46566;52.700;6.192;2022-12-29T07:47:03;9.60;99.90
60717;DHT22;46566;52.700;6.192;2022-12-29T07:49:28;9.60;99.90
60717;DHT22;46566;52.700;6.192;2022-12-29T07:51:54;9.60;99.90
60717;DHT22;46566;52.700;6.192;2022-12-29T07:54:20;9.60;99.90
60717;DHT22;46566;52.700;6.192;2022-12-29T07:56:46;9.50;99.90
60717;DHT22;46566;52.700;6.192;2022-12-29T07:59:11;9.60;99.90
60717;DHT22;46566;52.700;6.192;2022-12-29T08:01:40;9.50;99.90
60717;DHT22;46566;52.700;6.192;2022-12-29T08:04:05;9.60;99.90
60717;DHT22;46566;52.700;6.192;2022-12-29T08:06:31;9.50;99.90
60717;DHT22;46566;52.700;6.192;2022-12-29T08:08:57;9.50;99.90
60717;DHT22;46566;52.700;6.192;2022-12-29T08:11:23;9.50;99.90
60717;DHT22;46566;52.700;6.192;2022-12-29T08:13:49;9.50;99.90
60717;DHT22;46566;52.700;6.192;2022-12-29T08:16:15;9.60;99.90
60717;DHT22;46566;52.700;6.192;2022-12-29T08:18:40;9.60;99.90
60717;DHT22;46566;52.700;6.192;2022-12-29T08:21:06;9.50;99.90
60717;DHT22;46566;52.700;6.192;2022-12-29T08:23:32;9.60;99.90
60717;DHT22;46566;52.700;6.192;2022-12-29T08:25:59;9.60;99.90
60717;DHT22;46566;52.700;6.192;2022-12-29T08:28:26;9.60;99.90
60717;DHT22;46566;52.700;6.192;2022-12-29T08:30:52;9.60;99.90
60717;DHT22;46566;52.700;6.192;2022-12-29T08:33:18;9.60;99.90
60717;DHT22;46566;52.700;6.192;2022-12-29T08:35:44;9.60;99.90
60717;DHT22;46566;52.700;6.192;2022-12-29T08:38:10;9.60;99.90
60717;DHT22;46566;52.700;6.192;2022-12-29T08:40:39;9.60;99.90
60717;DHT22;46566;52.700;6.192;2022-12-29T08:43:04;9.70;99.90
60717;DHT22;46566;52.700;6.192;2022-12-29T08:45:31;9.70;99.90
60717;DHT22;46566;52.700;6.192;2022-12-29T08:47:56;9.70;99.90
60717;DHT22;46566;52.700;6.192;2022-12-29T08:50:22;9.70;99.90
60717;DHT22;46566;52.700;6.192;2022-12-29T08:52:48;9.70;99.90
60717;DHT22;46566;52.700;6.192;2022-12-29T08:55:13;9.70;99.90
60717;DHT22;46566;52.700;6.192;2022-12-29T08:57:39;9.70;99.90
60717;DHT22;46566;52.700;6.192;2022-12-29T09:00:12;9.70;99.90
60717;DHT22;46566;52.700;6.192;2022-12-29T09:02:43;9.70;99.90
60717;DHT22;46566;52.700;6.192;2022-12-29T09:05:14;9.60;99.90
60717;DHT22;46566;52.700;6.192;2022-12-29T09:07:39;9.60;99.90
60717;DHT22;46566;52.700;6.192;2022-12-29T09:10:05;9.50;99.90
60717;DHT22;46566;52.700;6.192;2022-12-29T09:12:31;9.50;99.90
60717;DHT22;46566;52.700;6.192;2022-12-29T09:14:57;9.50;99.90
60717;DHT22;46566;52.700;6.192;2022-12-29T09:17:23;9.50;99.90
60717;DHT22;46566;52.700;6.192;2022-12-29T09:20:16;9.40;99.90
60717;DHT22;46566;52.700;6.192;2022-12-29T09:22:42;9.40;99.90
60717;DHT22;46566;52.700;6.192;2022-12-29T09:25:09;9.40;99.90
60717;DHT22;46566;52.700;6.192;2022-12-29T09:27:36;9.40;99.90
60717;DHT22;46566;52.700;6.192;2022-12-29T09:30:04;9.40;99.90
60717;DHT22;46566;52.700;6.192;2022-12-29T09:32:31;9.40;99.90
60717;DHT22;46566;52.700;6.192;2022-12-29T09:34:57;9.30;99.90
60717;DHT22;46566;52.700;6.192;2022-12-29T09:37:22;9.30;99.90
60717;DHT22;46566;52.700;6.192;2022-12-29T09:39:48;9.30;99.90
60717;DHT22;46566;52.700;6.192;2022-12-29T09:42:27;9.30;99.90
60717;DHT22;46566;52.700;6.192;2022-12-29T09:47:33;9.30;99.90
60717;DHT22;46566;52.700;6.192;2022-12-29T09:50:00;9.30;99.90
60717;DHT22;46566;52.700;6.192;2022-12-29T09:52:30;9.30;99.90
60717;DHT22;46566;52.700;6.192;2022-12-29T09:55:13;9.40;99.90
60717;DHT22;46566;52.700;6.192;2022-12-29T09:57:54;9.40;99.90
60717;DHT22;46566;52.700;6.192;2022-12-29T10:00:27;9.40;99.90
60717;DHT22;46566;52.700;6.192;2022-12-29T10:03:20;9.40;99.90
60717;DHT22;46566;52.700;6.192;2022-12-29T10:06:15;9.40;99.90
60717;DHT22;46566;52.700;6.192;2022-12-29T10:11:49;9.30;99.90
60717;DHT22;46566;52.700;6.192;2022-12-29T10:17:34;9.20;99.90
60717;DHT22;46566;52.700;6.192;2022-12-29T10:25:38;9.30;99.90
60717;DHT22;46566;52.700;6.192;2022-12-29T10:28:21;9.20;99.90
60717;DHT22;46566;52.700;6.192;2022-12-29T10:30:49;9.20;99.90
60717;DHT22;46566;52.700;6.192;2022-12-29T10:33:37;9.20;99.90
60717;DHT22;46566;52.700;6.192;2022-12-29T10:36:21;9.20;99.90
60717;DHT22;46566;52.700;6.192;2022-12-29T10:39:13;9.20;99.90
60717;DHT22;46566;52.700;6.192;2022-12-29T10:42:04;9.20;99.90
60717;DHT22;46566;52.700;6.192;2022-12-29T10:44:34;9.30;99.90
60717;DHT22;46566;52.700;6.192;2022-12-29T10:47:05;9.30;99.90
60717;DHT22;46566;52.700;6.192;2022-12-29T10:50:04;9.30;99.90
60717;DHT22;46566;52.700;6.192;2022-12-29T10:58:03;9.30;99.90
60717;DHT22;46566;52.700;6.192;2022-12-29T11:00:30;9.20;99.90
60717;DHT22;46566;52.700;6.192;2022-12-29T11:09:28;9.20;99.90
60717;DHT22;46566;52.700;6.192;2022-12-29T11:11:55;9.20;99.90
60717;DHT22;46566;52.700;6.192;2022-12-29T11:17:17;9.20;99.90
60717;DHT22;46566;52.700;6.192;2022-12-29T11:23:09;9.20;99.90
60717;DHT22;46566;52.700;6.192;2022-12-29T11:28:43;9.20;99.90
60717;DHT22;46566;52.700;6.192;2022-12-29T11:31:09;9.20;99.90
60717;DHT22;46566;52.700;6.192;2022-12-29T11:34:05;9.20;99.90
60717;DHT22;46566;52.700;6.192;2022-12-29T11:36:33;9.20;99.90
60717;DHT22;46566;52.700;6.192;2022-12-29T11:39:00;9.20;99.90
60717;DHT22;46566;52.700;6.192;2022-12-29T11:41:51;9.20;99.90
60717;DHT22;46566;52.700;6.192;2022-12-29T11:44:17;9.20;99.90
60717;DHT22;46566;52.700;6.192;2022-12-29T11:46:47;9.30;99.90
60717;DHT22;46566;52.700;6.192;2022-12-29T11:49:49;9.30;99.90
60717;DHT22;46566;52.700;6.192;2022-12-29T11:52:15;9.40;99.90
60717;DHT22;46566;52.700;6.192;2022-12-29T11:54:42;9.40;99.90
60717;DHT22;46566;52.700;6.192;2022-12-29T11:57:27;9.50;99.90
60717;DHT22;46566;52.700;6.192;2022-12-29T11:59:54;9.60;99.90
60717;DHT22;46566;52.700;6.192;2022-12-29T12:02:44;9.60;99.90
60717;DHT22;46566;52.700;6.192;2022-12-29T12:05:40;9.60;99.90
60717;DHT22;46566;52.700;6.192;2022-12-29T12:08:22;9.60;99.90
60717;DHT22;46566;52.700;6.192;2022-12-29T12:11:20;9.50;99.90
60717;DHT22;46566;52.700;6.192;2022-12-29T12:23:40;9.20;99.90
60717;DHT22;46566;52.700;6.192;2022-12-29T12:26:16;9.20;99.90
60717;DHT22;46566;52.700;6.192;2022-12-29T13:02:15;9.30;99.90
60717;DHT22;46566;52.700;6.192;2022-12-29T13:19:08;9.40;99.90
60717;DHT22;46566;52.700;6.192;2022-12-29T13:22:09;9.40;99.90
60717;DHT22;46566;52.700;6.192;2022-12-29T13:37:11;9.30;99.90
60717;DHT22;46566;52.700;6.192;2022-12-29T13:39:59;9.30;99.90
60717;DHT22;46566;52.700;6.192;2022-12-29T13:42:27;9.30;99.90
60717;DHT22;46566;52.700;6.192;2022-12-29T13:45:00;9.40;99.90
60717;DHT22;46566;52.700;6.192;2022-12-29T13:50:53;9.40;99.90
60717;DHT22;46566;52.700;6.192;2022-12-29T13:56:24;9.30;99.90
60717;DHT22;46566;52.700;6.192;2022-12-29T13:59:19;9.30;99.90
60717;DHT22;46566;52.700;6.192;2022-12-29T14:01:53;9.30;99.90
60717;DHT22;46566;52.700;6.192;2022-12-29T14:07:18;9.20;99.90
60717;DHT22;46566;52.700;6.192;2022-12-29T14:09:47;9.20;99.90
60717;DHT22;46566;52.700;6.192;2022-12-29T14:12:42;9.30;99.90
60717;DHT22;46566;52.700;6.192;2022-12-29T14:15:25;9.20;99.90
60717;DHT22;46566;52.700;6.192;2022-12-29T14:20:53;9.20;99.90
60717;DHT22;46566;52.700;6.192;2022-12-29T14:26:50;9.20;99.90
60717;DHT22;46566;52.700;6.192;2022-12-29T14:29:43;9.30;99.90
60717;DHT22;46566;52.700;6.192;2022-12-29T14:38:50;9.20;99.90
60717;DHT22;46566;52.700;6.192;2022-12-29T14:41:18;9.20;99.90
60717;DHT22;46566;52.700;6.192;2022-12-29T14:49:19;9.10;99.90
60717;DHT22;46566;52.700;6.192;2022-12-29T14:52:24;9.10;99.90
60717;DHT22;46566;52.700;6.192;2022-12-29T14:57:59;9.10;99.90
60717;DHT22;46566;52.700;6.192;2022-12-29T15:00:34;9.10;99.90
60717;DHT22;46566;52.700;6.192;2022-12-29T15:06:04;9.10;99.90
60717;DHT22;46566;52.700;6.192;2022-12-29T15:08:39;9.00;99.90
60717;DHT22;46566;52.700;6.192;2022-12-29T15:13:53;9.00;99.90
60717;DHT22;46566;52.700;6.192;2022-12-29T15:16:50;8.90;99.90
60717;DHT22;46566;52.700;6.192;2022-12-29T15:19:26;8.90;99.90
60717;DHT22;46566;52.700;6.192;2022-12-29T15:21:53;8.90;99.90
60717;DHT22;46566;52.700;6.192;2022-12-29T15:24:19;8.90;99.90
60717;DHT22;46566;52.700;6.192;2022-12-29T15:27:13;8.80;99.90
60717;DHT22;46566;52.700;6.192;2022-12-29T15:29:44;8.80;99.90
60717;DHT22;46566;52.700;6.192;2022-12-29T15:32:17;8.80;99.90
60717;DHT22;46566;52.700;6.192;2022-12-29T15:44:02;8.70;99.90
60717;DHT22;46566;52.700;6.192;2022-12-29T15:46:32;8.70;99.90
60717;DHT22;46566;52.700;6.192;2022-12-29T15:48:58;8.70;99.90
60717;DHT22;46566;52.700;6.192;2022-12-29T15:51:30;8.70;99.90
60717;DHT22;46566;52.700;6.192;2022-12-29T15:53:58;8.60;99.90
60717;DHT22;46566;52.700;6.192;2022-12-29T15:56:24;8.60;99.90
60717;DHT22;46566;52.700;6.192;2022-12-29T15:58:52;8.60;99.90
60717;DHT22;46566;52.700;6.192;2022-12-29T16:01:35;8.50;99.90
60717;DHT22;46566;52.700;6.192;2022-12-29T16:04:06;8.50;99.90
60717;DHT22;46566;52.700;6.192;2022-12-29T16:06:36;8.50;99.90
60717;DHT22;46566;52.700;6.192;2022-12-29T16:09:11;8.50;99.90
60717;DHT22;46566;52.700;6.192;2022-12-29T16:11:41;8.50;99.90
60717;DHT22;46566;52.700;6.192;2022-12-29T16:14:14;8.40;99.90
60717;DHT22;46566;52.700;6.192;2022-12-29T16:16:42;8.40;99.90
60717;DHT22;46566;52.700;6.192;2022-12-29T16:19:32;8.40;99.90
60717;DHT22;46566;52.700;6.192;2022-12-29T16:21:59;8.40;99.90
60717;DHT22;46566;52.700;6.192;2022-12-29T16:24:29;8.40;99.90
60717;DHT22;46566;52.700;6.192;2022-12-29T16:29:21;8.40;99.90
60717;DHT22;46566;52.700;6.192;2022-12-29T16:31:54;8.40;99.90
60717;DHT22;46566;52.700;6.192;2022-12-29T16:37:04;8.30;99.90
60717;DHT22;46566;52.700;6.192;2022-12-29T16:39:44;8.30;99.90
60717;DHT22;46566;52.700;6.192;2022-12-29T16:42:34;8.30;99.90
60717;DHT22;46566;52.700;6.192;2022-12-29T16:46:06;8.30;99.90
60717;DHT22;46566;52.700;6.192;2022-12-29T16:48:29;8.30;99.90
60717;DHT22;46566;52.700;6.192;2022-12-29T16:51:30;8.30;99.90
60717;DHT22;46566;52.700;6.192;2022-12-29T16:53:57;8.30;99.90
60717;DHT22;46566;52.700;6.192;2022-12-29T16:56:26;8.30;99.90
60717;DHT22;46566;52.700;6.192;2022-12-29T16:59:09;8.30;99.90
60717;DHT22;46566;52.700;6.192;2022-12-29T17:01:41;8.30;99.90
60717;DHT22;46566;52.700;6.192;2022-12-29T17:04:11;8.30;99.90
60717;DHT22;46566;52.700;6.192;2022-12-29T17:06:38;8.30;99.90
60717;DHT22;46566;52.700;6.192;2022-12-29T17:09:18;8.30;99.90
60717;DHT22;46566;52.700;6.192;2022-12-29T17:11:47;8.30;99.90
60717;DHT22;46566;52.700;6.192;2022-12-29T17:14:44;8.30;99.90
60717;DHT22;46566;52.700;6.192;2022-12-29T17:20:22;8.30;99.90
60717;DHT22;46566;52.700;6.192;2022-12-29T17:22:47;8.20;99.90
60717;DHT22;46566;52.700;6.192;2022-12-29T17:25:15;8.30;99.90
60717;DHT22;46566;52.700;6.192;2022-12-29T17:27:46;8.20;99.90
60717;DHT22;46566;52.700;6.192;2022-12-29T17:30:19;8.20;99.90
60717;DHT22;46566;52.700;6.192;2022-12-29T17:32:53;8.20;99.90
60717;DHT22;46566;52.700;6.192;2022-12-29T17:35:21;8.20;99.90
60717;DHT22;46566;52.700;6.192;2022-12-29T17:37:47;8.20;99.90
60717;DHT22;46566;52.700;6.192;2022-12-29T17:40:16;8.20;99.90
60717;DHT22;46566;52.700;6.192;2022-12-29T17:42:47;8.20;99.90
60717;DHT22;46566;52.700;6.192;2022-12-29T17:45:15;8.20;99.90
60717;DHT22;46566;52.700;6.192;2022-12-29T17:47:41;8.20;99.90
60717;DHT22;46566;52.700;6.192;2022-12-29T17:50:18;8.30;99.90
60717;DHT22;46566;52.700;6.192;2022-12-29T17:52:51;8.30;99.90
60717;DHT22;46566;52.700;6.192;2022-12-29T17:55:19;8.30;99.90
60717;DHT22;46566;52.700;6.192;2022-12-29T17:57:46;8.30;99.90
60717;DHT22;46566;52.700;6.192;2022-12-29T18:00:24;8.30;99.90
60717;DHT22;46566;52.700;6.192;2022-12-29T18:02:52;8.30;99.90
60717;DHT22;46566;52.700;6.192;2022-12-29T18:05:23;8.30;99.90
60717;DHT22;46566;52.700;6.192;2022-12-29T18:07:52;8.30;99.90
60717;DHT22;46566;52.700;6.192;2022-12-29T18:10:19;8.30;99.90
60717;DHT22;46566;52.700;6.192;2022-12-29T18:12:47;8.30;99.90
60717;DHT22;46566;52.700;6.192;2022-12-29T18:15:20;8.30;99.90
60717;DHT22;46566;52.700;6.192;2022-12-29T18:17:46;8.30;99.90
60717;DHT22;46566;52.700;6.192;2022-12-29T18:20:12;8.20;99.90
60717;DHT22;46566;52.700;6.192;2022-12-29T18:22:38;8.20;99.90
60717;DHT22;46566;52.700;6.192;2022-12-29T18:25:25;8.20;99.90
60717;DHT22;46566;52.700;6.192;2022-12-29T18:27:51;8.20;99.90
60717;DHT22;46566;52.700;6.192;2022-12-29T18:30:17;8.20;99.90
60717;DHT22;46566;52.700;6.192;2022-12-29T18:32:43;8.20;99.90
60717;DHT22;46566;52.700;6.192;2022-12-29T18:35:15;8.10;99.90
60717;DHT22;46566;52.700;6.192;2022-12-29T18:37:42;8.10;99.90
60717;DHT22;46566;52.700;6.192;2022-12-29T18:40:11;8.10;99.90
60717;DHT22;46566;52.700;6.192;2022-12-29T18:42:37;8.00;99.90
60717;DHT22;46566;52.700;6.192;2022-12-29T18:45:13;7.90;99.90
60717;DHT22;46566;52.700;6.192;2022-12-29T18:47:39;7.90;99.90
60717;DHT22;46566;52.700;6.192;2022-12-29T18:50:05;7.90;99.90
60717;DHT22;46566;52.700;6.192;2022-12-29T18:52:31;7.90;99.90
60717;DHT22;46566;52.700;6.192;2022-12-29T18:54:56;7.90;99.90
60717;DHT22;46566;52.700;6.192;2022-12-29T18:57:22;7.90;99.90
60717;DHT22;46566;52.700;6.192;2022-12-29T18:59:48;7.90;99.90
60717;DHT22;46566;52.700;6.192;2022-12-29T19:02:16;7.90;99.90
60717;DHT22;46566;52.700;6.192;2022-12-29T19:04:42;7.90;99.90
60717;DHT22;46566;52.700;6.192;2022-12-29T19:07:08;7.90;99.90
60717;DHT22;46566;52.700;6.192;2022-12-29T19:09:33;7.90;99.90
60717;DHT22;46566;52.700;6.192;2022-12-29T19:11:59;8.00;99.90
60717;DHT22;46566;52.700;6.192;2022-12-29T19:14:24;8.00;99.90
60717;DHT22;46566;52.700;6.192;2022-12-29T19:16:50;7.90;99.90
60717;DHT22;46566;52.700;6.192;2022-12-29T19:21:42;7.90;99.90